sensor_id;sensor_type;location;lat;lon;timestamp;P1;durP1;ratioP1;P2;durP2;ratioP2
31734;SDS011;18313;48.518;9.124;2023-01-28T00:00:07;22.40;;;12.85;;
31734;SDS011;18313;48.518;9.124;2023-01-28T00:02:35;24.45;;;13.20;;
31734;SDS011;18313;48.518;9.124;2023-01-28T00:05:02;22.75;;;13.05;;
31734;SDS011;18313;48.518;9.124;2023-01-28T00:07:30;25.48;;;13.07;;
31734;SDS011;18313;48.518;9.124;2023-01-28T00:09:58;23.55;;;13.30;;
31734;SDS011;18313;48.518;9.124;2023-01-28T00:12:25;23.52;;;13.02;;
31734;SDS011;18313;48.518;9.124;2023-01-28T00:14:52;22.60;;;13.55;;
31734;SDS011;18313;48.518;9.124;2023-01-28T00:17:20;23.23;;;12.93;;
31734;SDS011;18313;48.518;9.124;2023-01-28T00:19:47;23.48;;;13.13;;
31734;SDS011;18313;48.518;9.124;2023-01-28T00:22:14;21.88;;;11.93;;
31734;SDS011;18313;48.518;9.124;2023-01-28T00:24:42;22.65;;;12.80;;
31734;SDS011;18313;48.518;9.124;2023-01-28T00:27:10;24.48;;;13.15;;
31734;SDS011;18313;48.518;9.124;2023-01-28T00:29:38;22.70;;;12.73;;
31734;SDS011;18313;48.518;9.124;2023-01-28T00:32:06;20.58;;;12.20;;
31734;SDS011;18313;48.518;9.124;2023-01-28T00:34:33;24.17;;;12.27;;
31734;SDS011;18313;48.518;9.124;2023-01-28T00:37:00;21.80;;;12.75;;
31734;SDS011;18313;48.518;9.124;2023-01-28T00:39:28;22.75;;;12.82;;
31734;SDS011;18313;48.518;9.124;2023-01-28T00:41:55;24.40;;;12.57;;
31734;SDS011;18313;48.518;9.124;2023-01-28T00:44:23;22.15;;;13.02;;
31734;SDS011;18313;48.518;9.124;2023-01-28T00:46:50;22.23;;;13.18;;
31734;SDS011;18313;48.518;9.124;2023-01-28T00:49:18;24.25;;;13.18;;
31734;SDS011;18313;48.518;9.124;2023-01-28T00:51:45;22.75;;;13.13;;
31734;SDS011;18313;48.518;9.124;2023-01-28T00:54:14;20.38;;;11.82;;
31734;SDS011;18313;48.518;9.124;2023-01-28T00:56:42;22.83;;;12.75;;
31734;SDS011;18313;48.518;9.124;2023-01-28T00:59:09;22.73;;;13.10;;
31734;SDS011;18313;48.518;9.124;2023-01-28T01:01:36;21.45;;;12.00;;
31734;SDS011;18313;48.518;9.124;2023-01-28T01:04:04;23.38;;;12.43;;
31734;SDS011;18313;48.518;9.124;2023-01-28T01:06:33;22.83;;;12.23;;
31734;SDS011;18313;48.518;9.124;2023-01-28T01:09:03;24.17;;;13.15;;
31734;SDS011;18313;48.518;9.124;2023-01-28T01:11:34;24.42;;;13.38;;
31734;SDS011;18313;48.518;9.124;2023-01-28T01:14:01;23.25;;;12.50;;
31734;SDS011;18313;48.518;9.124;2023-01-28T01:16:30;24.60;;;13.57;;
31734;SDS011;18313;48.518;9.124;2023-01-28T01:18:59;24.13;;;12.43;;
31734;SDS011;18313;48.518;9.124;2023-01-28T01:21:28;23.95;;;12.95;;
31734;SDS011;18313;48.518;9.124;2023-01-28T01:23:56;21.58;;;12.77;;
31734;SDS011;18313;48.518;9.124;2023-01-28T01:26:24;23.83;;;13.85;;
31734;SDS011;18313;48.518;9.124;2023-01-28T01:28:53;26.77;;;12.60;;
31734;SDS011;18313;48.518;9.124;2023-01-28T01:31:20;24.17;;;12.98;;
31734;SDS011;18313;48.518;9.124;2023-01-28T01:33:49;25.35;;;13.00;;
31734;SDS011;18313;48.518;9.124;2023-01-28T01:36:18;23.52;;;12.43;;
31734;SDS011;18313;48.518;9.124;2023-01-28T01:38:47;23.95;;;12.43;;
31734;SDS011;18313;48.518;9.124;2023-01-28T01:41:27;24.17;;;12.38;;
31734;SDS011;18313;48.518;9.124;2023-01-28T01:43:59;21.70;;;11.00;;
31734;SDS011;18313;48.518;9.124;2023-01-28T01:46:33;21.20;;;12.00;;
31734;SDS011;18313;48.518;9.124;2023-01-28T01:51:53;20.88;;;11.88;;
31734;SDS011;18313;48.518;9.124;2023-01-28T01:54:27;19.70;;;10.85;;
31734;SDS011;18313;48.518;9.124;2023-01-28T01:56:57;23.25;;;12.32;;
31734;SDS011;18313;48.518;9.124;2023-01-28T01:59:27;22.00;;;10.73;;
31734;SDS011;18313;48.518;9.124;2023-01-28T02:02:02;24.58;;;12.50;;
31734;SDS011;18313;48.518;9.124;2023-01-28T02:04:34;20.50;;;11.07;;
31734;SDS011;18313;48.518;9.124;2023-01-28T02:07:08;20.88;;;11.27;;
31734;SDS011;18313;48.518;9.124;2023-01-28T02:09:37;18.85;;;9.75;;
31734;SDS011;18313;48.518;9.124;2023-01-28T02:12:08;22.05;;;11.65;;
31734;SDS011;18313;48.518;9.124;2023-01-28T02:14:44;21.98;;;10.88;;
31734;SDS011;18313;48.518;9.124;2023-01-28T02:17:21;21.90;;;11.30;;
31734;SDS011;18313;48.518;9.124;2023-01-28T02:19:58;21.25;;;11.00;;
31734;SDS011;18313;48.518;9.124;2023-01-28T02:22:44;20.73;;;11.40;;
31734;SDS011;18313;48.518;9.124;2023-01-28T02:28:26;17.90;;;10.25;;
31734;SDS011;18313;48.518;9.124;2023-01-28T02:39:08;20.67;;;10.50;;
31734;SDS011;18313;48.518;9.124;2023-01-28T02:42:01;17.45;;;9.50;;
31734;SDS011;18313;48.518;9.124;2023-01-28T02:44:32;20.77;;;10.25;;
31734;SDS011;18313;48.518;9.124;2023-01-28T02:47:01;17.45;;;9.43;;
31734;SDS011;18313;48.518;9.124;2023-01-28T02:49:51;18.10;;;9.50;;
31734;SDS011;18313;48.518;9.124;2023-01-28T02:58:24;21.08;;;11.27;;
31734;SDS011;18313;48.518;9.124;2023-01-28T03:01:15;18.30;;;10.30;;
31734;SDS011;18313;48.518;9.124;2023-01-28T03:03:58;21.42;;;10.63;;
31734;SDS011;18313;48.518;9.124;2023-01-28T03:06:42;20.58;;;10.20;;
31734;SDS011;18313;48.518;9.124;2023-01-28T03:09:12;18.08;;;10.25;;
31734;SDS011;18313;48.518;9.124;2023-01-28T03:14:55;20.13;;;10.77;;
31734;SDS011;18313;48.518;9.124;2023-01-28T03:17:46;18.33;;;9.80;;
31734;SDS011;18313;48.518;9.124;2023-01-28T03:20:45;20.48;;;10.68;;
31734;SDS011;18313;48.518;9.124;2023-01-28T03:23:58;18.35;;;9.65;;
31734;SDS011;18313;48.518;9.124;2023-01-28T03:26:57;18.45;;;10.43;;
31734;SDS011;18313;48.518;9.124;2023-01-28T03:29:56;21.20;;;8.80;;
31734;SDS011;18313;48.518;9.124;2023-01-28T03:32:47;18.17;;;9.55;;
31734;SDS011;18313;48.518;9.124;2023-01-28T03:35:34;19.92;;;9.73;;
31734;SDS011;18313;48.518;9.124;2023-01-28T03:38:22;21.52;;;10.50;;
31734;SDS011;18313;48.518;9.124;2023-01-28T03:41:00;18.58;;;10.13;;
31734;SDS011;18313;48.518;9.124;2023-01-28T03:43:29;22.27;;;11.02;;
31734;SDS011;18313;48.518;9.124;2023-01-28T03:45:56;19.13;;;9.90;;
31734;SDS011;18313;48.518;9.124;2023-01-28T03:48:26;19.60;;;9.55;;
31734;SDS011;18313;48.518;9.124;2023-01-28T03:50:54;20.33;;;10.55;;
31734;SDS011;18313;48.518;9.124;2023-01-28T03:53:22;19.15;;;10.75;;
31734;SDS011;18313;48.518;9.124;2023-01-28T03:55:50;16.08;;;9.77;;
31734;SDS011;18313;48.518;9.124;2023-01-28T03:58:19;18.33;;;10.05;;
31734;SDS011;18313;48.518;9.124;2023-01-28T04:00:46;17.17;;;10.27;;
31734;SDS011;18313;48.518;9.124;2023-01-28T04:03:15;18.75;;;10.57;;
31734;SDS011;18313;48.518;9.124;2023-01-28T04:05:46;17.95;;;10.15;;
31734;SDS011;18313;48.518;9.124;2023-01-28T04:08:25;20.63;;;10.57;;
31734;SDS011;18313;48.518;9.124;2023-01-28T04:10:53;17.25;;;10.57;;
31734;SDS011;18313;48.518;9.124;2023-01-28T04:13:20;19.42;;;9.93;;
31734;SDS011;18313;48.518;9.124;2023-01-28T04:15:48;21.15;;;11.02;;
31734;SDS011;18313;48.518;9.124;2023-01-28T04:18:15;17.27;;;9.02;;
31734;SDS011;18313;48.518;9.124;2023-01-28T04:20:43;20.58;;;10.15;;
31734;SDS011;18313;48.518;9.124;2023-01-28T04:23:10;18.20;;;9.43;;
31734;SDS011;18313;48.518;9.124;2023-01-28T04:25:37;19.42;;;10.10;;
31734;SDS011;18313;48.518;9.124;2023-01-28T04:28:05;20.58;;;10.57;;
31734;SDS011;18313;48.518;9.124;2023-01-28T04:30:32;19.60;;;10.13;;
31734;SDS011;18313;48.518;9.124;2023-01-28T04:33:00;18.55;;;9.93;;
31734;SDS011;18313;48.518;9.124;2023-01-28T04:35:28;18.85;;;10.35;;
31734;SDS011;18313;48.518;9.124;2023-01-28T04:37:55;18.02;;;9.65;;
31734;SDS011;18313;48.518;9.124;2023-01-28T04:40:23;21.90;;;9.50;;
31734;SDS011;18313;48.518;9.124;2023-01-28T04:42:54;21.48;;;10.85;;
31734;SDS011;18313;48.518;9.124;2023-01-28T04:45:22;22.73;;;10.32;;
31734;SDS011;18313;48.518;9.124;2023-01-28T04:47:50;18.38;;;10.10;;
31734;SDS011;18313;48.518;9.124;2023-01-28T04:50:17;19.38;;;10.45;;
31734;SDS011;18313;48.518;9.124;2023-01-28T04:52:44;18.25;;;10.32;;
31734;SDS011;18313;48.518;9.124;2023-01-28T04:55:12;17.15;;;9.18;;
31734;SDS011;18313;48.518;9.124;2023-01-28T04:57:39;16.35;;;9.43;;
31734;SDS011;18313;48.518;9.124;2023-01-28T05:00:07;19.83;;;9.82;;
31734;SDS011;18313;48.518;9.124;2023-01-28T05:02:35;17.95;;;9.70;;
31734;SDS011;18313;48.518;9.124;2023-01-28T05:05:02;19.73;;;9.32;;
31734;SDS011;18313;48.518;9.124;2023-01-28T05:07:34;20.70;;;10.23;;
31734;SDS011;18313;48.518;9.124;2023-01-28T05:10:02;18.98;;;9.80;;
31734;SDS011;18313;48.518;9.124;2023-01-28T05:12:30;17.08;;;10.18;;
31734;SDS011;18313;48.518;9.124;2023-01-28T05:15:00;17.20;;;9.50;;
31734;SDS011;18313;48.518;9.124;2023-01-28T05:17:27;16.45;;;9.38;;
31734;SDS011;18313;48.518;9.124;2023-01-28T05:19:55;15.15;;;9.35;;
31734;SDS011;18313;48.518;9.124;2023-01-28T05:22:22;17.83;;;9.88;;
31734;SDS011;18313;48.518;9.124;2023-01-28T05:24:50;19.75;;;10.05;;
31734;SDS011;18313;48.518;9.124;2023-01-28T05:27:18;17.13;;;9.68;;
31734;SDS011;18313;48.518;9.124;2023-01-28T05:29:45;19.10;;;9.85;;
31734;SDS011;18313;48.518;9.124;2023-01-28T05:32:13;17.52;;;9.68;;
31734;SDS011;18313;48.518;9.124;2023-01-28T05:34:40;19.40;;;10.52;;
31734;SDS011;18313;48.518;9.124;2023-01-28T05:37:08;18.67;;;9.73;;
31734;SDS011;18313;48.518;9.124;2023-01-28T05:39:35;18.95;;;10.68;;
31734;SDS011;18313;48.518;9.124;2023-01-28T05:42:02;18.77;;;10.68;;
31734;SDS011;18313;48.518;9.124;2023-01-28T05:44:30;17.73;;;10.13;;
31734;SDS011;18313;48.518;9.124;2023-01-28T05:46:58;18.95;;;9.90;;
31734;SDS011;18313;48.518;9.124;2023-01-28T05:49:25;17.08;;;10.10;;
31734;SDS011;18313;48.518;9.124;2023-01-28T05:51:52;17.35;;;10.30;;
31734;SDS011;18313;48.518;9.124;2023-01-28T05:54:20;18.80;;;10.82;;
31734;SDS011;18313;48.518;9.124;2023-01-28T05:56:47;18.77;;;10.55;;
31734;SDS011;18313;48.518;9.124;2023-01-28T05:59:15;16.27;;;9.27;;
31734;SDS011;18313;48.518;9.124;2023-01-28T06:01:43;21.80;;;9.63;;
31734;SDS011;18313;48.518;9.124;2023-01-28T06:04:10;17.63;;;9.68;;
31734;SDS011;18313;48.518;9.124;2023-01-28T06:06:38;19.33;;;9.90;;
31734;SDS011;18313;48.518;9.124;2023-01-28T06:09:06;20.77;;;10.13;;
31734;SDS011;18313;48.518;9.124;2023-01-28T06:11:33;20.63;;;10.63;;
31734;SDS011;18313;48.518;9.124;2023-01-28T06:14:01;19.13;;;10.80;;
31734;SDS011;18313;48.518;9.124;2023-01-28T06:16:28;18.33;;;9.75;;
31734;SDS011;18313;48.518;9.124;2023-01-28T06:18:56;22.15;;;10.63;;
31734;SDS011;18313;48.518;9.124;2023-01-28T06:21:23;19.10;;;10.98;;
31734;SDS011;18313;48.518;9.124;2023-01-28T06:23:50;17.83;;;9.98;;
31734;SDS011;18313;48.518;9.124;2023-01-28T06:26:18;23.23;;;13.57;;
31734;SDS011;18313;48.518;9.124;2023-01-28T06:28:45;23.45;;;13.05;;
31734;SDS011;18313;48.518;9.124;2023-01-28T06:31:13;16.48;;;9.90;;
31734;SDS011;18313;48.518;9.124;2023-01-28T06:33:41;18.45;;;9.90;;
31734;SDS011;18313;48.518;9.124;2023-01-28T06:36:08;18.90;;;10.48;;
31734;SDS011;18313;48.518;9.124;2023-01-28T06:38:36;18.42;;;9.63;;
31734;SDS011;18313;48.518;9.124;2023-01-28T06:41:04;19.00;;;10.45;;
31734;SDS011;18313;48.518;9.124;2023-01-28T06:43:31;18.50;;;10.30;;
31734;SDS011;18313;48.518;9.124;2023-01-28T06:45:59;26.58;;;12.05;;
31734;SDS011;18313;48.518;9.124;2023-01-28T06:48:27;22.83;;;10.27;;
31734;SDS011;18313;48.518;9.124;2023-01-28T06:50:54;18.83;;;9.93;;
31734;SDS011;18313;48.518;9.124;2023-01-28T06:53:21;22.80;;;11.25;;
31734;SDS011;18313;48.518;9.124;2023-01-28T06:55:49;16.08;;;9.43;;
31734;SDS011;18313;48.518;9.124;2023-01-28T06:58:16;18.45;;;10.63;;
31734;SDS011;18313;48.518;9.124;2023-01-28T07:00:43;18.80;;;10.88;;
31734;SDS011;18313;48.518;9.124;2023-01-28T07:03:11;21.67;;;11.23;;
31734;SDS011;18313;48.518;9.124;2023-01-28T07:05:39;18.20;;;10.82;;
31734;SDS011;18313;48.518;9.124;2023-01-28T07:08:06;18.77;;;10.10;;
31734;SDS011;18313;48.518;9.124;2023-01-28T07:10:34;16.92;;;9.80;;
31734;SDS011;18313;48.518;9.124;2023-01-28T07:13:01;16.73;;;10.00;;
31734;SDS011;18313;48.518;9.124;2023-01-28T07:15:29;14.80;;;9.65;;
31734;SDS011;18313;48.518;9.124;2023-01-28T07:17:56;18.63;;;9.93;;
31734;SDS011;18313;48.518;9.124;2023-01-28T07:20:25;17.02;;;9.77;;
31734;SDS011;18313;48.518;9.124;2023-01-28T07:22:52;17.83;;;10.40;;
31734;SDS011;18313;48.518;9.124;2023-01-28T07:25:20;17.83;;;10.18;;
31734;SDS011;18313;48.518;9.124;2023-01-28T07:27:48;16.65;;;10.23;;
31734;SDS011;18313;48.518;9.124;2023-01-28T07:30:18;18.20;;;10.82;;
31734;SDS011;18313;48.518;9.124;2023-01-28T07:32:46;18.55;;;10.90;;
31734;SDS011;18313;48.518;9.124;2023-01-28T07:35:18;20.42;;;10.75;;
31734;SDS011;18313;48.518;9.124;2023-01-28T07:37:55;18.83;;;10.52;;
31734;SDS011;18313;48.518;9.124;2023-01-28T07:40:24;18.77;;;10.77;;
31734;SDS011;18313;48.518;9.124;2023-01-28T07:42:52;20.67;;;10.68;;
31734;SDS011;18313;48.518;9.124;2023-01-28T07:45:22;21.48;;;11.45;;
31734;SDS011;18313;48.518;9.124;2023-01-28T07:47:54;19.70;;;10.57;;
31734;SDS011;18313;48.518;9.124;2023-01-28T07:50:23;19.08;;;11.00;;
31734;SDS011;18313;48.518;9.124;2023-01-28T07:52:51;18.30;;;10.77;;
31734;SDS011;18313;48.518;9.124;2023-01-28T07:55:18;17.67;;;10.77;;
31734;SDS011;18313;48.518;9.124;2023-01-28T07:57:52;20.98;;;11.57;;
31734;SDS011;18313;48.518;9.124;2023-01-28T08:00:21;22.25;;;12.57;;
31734;SDS011;18313;48.518;9.124;2023-01-28T08:02:49;19.52;;;11.23;;
31734;SDS011;18313;48.518;9.124;2023-01-28T08:05:21;19.02;;;11.48;;
31734;SDS011;18313;48.518;9.124;2023-01-28T08:07:49;20.67;;;11.27;;
31734;SDS011;18313;48.518;9.124;2023-01-28T08:10:17;21.25;;;11.68;;
31734;SDS011;18313;48.518;9.124;2023-01-28T08:12:55;19.10;;;10.25;;
31734;SDS011;18313;48.518;9.124;2023-01-28T08:15:26;28.85;;;15.75;;
31734;SDS011;18313;48.518;9.124;2023-01-28T08:17:57;25.85;;;14.65;;
31734;SDS011;18313;48.518;9.124;2023-01-28T08:20:26;20.73;;;11.55;;
31734;SDS011;18313;48.518;9.124;2023-01-28T08:23:07;19.10;;;11.77;;
31734;SDS011;18313;48.518;9.124;2023-01-28T08:25:39;21.88;;;11.25;;
31734;SDS011;18313;48.518;9.124;2023-01-28T08:28:06;20.63;;;12.05;;
31734;SDS011;18313;48.518;9.124;2023-01-28T08:30:35;20.85;;;12.02;;
31734;SDS011;18313;48.518;9.124;2023-01-28T08:33:06;19.55;;;10.85;;
31734;SDS011;18313;48.518;9.124;2023-01-28T08:35:36;19.23;;;11.05;;
31734;SDS011;18313;48.518;9.124;2023-01-28T08:38:04;18.75;;;11.02;;
31734;SDS011;18313;48.518;9.124;2023-01-28T08:40:33;18.88;;;10.82;;
31734;SDS011;18313;48.518;9.124;2023-01-28T08:43:01;17.58;;;10.95;;
31734;SDS011;18313;48.518;9.124;2023-01-28T08:45:29;39.53;;;23.95;;
31734;SDS011;18313;48.518;9.124;2023-01-28T08:47:58;112.15;;;69.47;;
31734;SDS011;18313;48.518;9.124;2023-01-28T08:50:38;53.28;;;35.30;;
31734;SDS011;18313;48.518;9.124;2023-01-28T08:53:06;44.25;;;27.52;;
31734;SDS011;18313;48.518;9.124;2023-01-28T08:55:41;38.83;;;26.40;;
31734;SDS011;18313;48.518;9.124;2023-01-28T08:58:09;25.70;;;15.95;;
31734;SDS011;18313;48.518;9.124;2023-01-28T09:00:39;20.25;;;12.13;;
31734;SDS011;18313;48.518;9.124;2023-01-28T09:03:07;22.33;;;13.60;;
31734;SDS011;18313;48.518;9.124;2023-01-28T09:05:34;19.65;;;11.73;;
31734;SDS011;18313;48.518;9.124;2023-01-28T09:08:03;21.73;;;12.80;;
31734;SDS011;18313;48.518;9.124;2023-01-28T09:10:32;18.05;;;11.55;;
31734;SDS011;18313;48.518;9.124;2023-01-28T09:13:06;18.75;;;11.55;;
31734;SDS011;18313;48.518;9.124;2023-01-28T09:15:35;20.95;;;13.80;;
31734;SDS011;18313;48.518;9.124;2023-01-28T09:18:03;19.63;;;12.00;;
31734;SDS011;18313;48.518;9.124;2023-01-28T09:20:31;17.67;;;10.98;;
31734;SDS011;18313;48.518;9.124;2023-01-28T09:22:59;18.20;;;10.98;;
31734;SDS011;18313;48.518;9.124;2023-01-28T09:25:27;21.20;;;11.50;;
31734;SDS011;18313;48.518;9.124;2023-01-28T09:27:54;20.10;;;11.48;;
31734;SDS011;18313;48.518;9.124;2023-01-28T09:30:21;22.20;;;11.05;;
31734;SDS011;18313;48.518;9.124;2023-01-28T09:32:50;20.30;;;11.25;;
31734;SDS011;18313;48.518;9.124;2023-01-28T09:35:18;19.85;;;11.77;;
31734;SDS011;18313;48.518;9.124;2023-01-28T09:37:45;21.30;;;12.07;;
31734;SDS011;18313;48.518;9.124;2023-01-28T09:40:18;17.50;;;11.07;;
31734;SDS011;18313;48.518;9.124;2023-01-28T09:45:51;20.15;;;11.60;;
31734;SDS011;18313;48.518;9.124;2023-01-28T09:48:24;19.77;;;9.98;;
31734;SDS011;18313;48.518;9.124;2023-01-28T09:50:58;21.80;;;12.20;;
31734;SDS011;18313;48.518;9.124;2023-01-28T09:53:28;19.30;;;10.90;;
31734;SDS011;18313;48.518;9.124;2023-01-28T09:56:02;18.90;;;11.25;;
31734;SDS011;18313;48.518;9.124;2023-01-28T09:58:33;19.73;;;11.73;;
31734;SDS011;18313;48.518;9.124;2023-01-28T10:01:09;17.42;;;9.50;;
31734;SDS011;18313;48.518;9.124;2023-01-28T10:04:10;21.70;;;11.55;;
31734;SDS011;18313;48.518;9.124;2023-01-28T10:18:40;21.05;;;12.27;;
31734;SDS011;18313;48.518;9.124;2023-01-28T10:21:20;22.25;;;11.80;;
31734;SDS011;18313;48.518;9.124;2023-01-28T10:24:34;20.92;;;12.02;;
31734;SDS011;18313;48.518;9.124;2023-01-28T10:27:15;17.67;;;10.88;;
31734;SDS011;18313;48.518;9.124;2023-01-28T10:29:47;18.58;;;10.82;;
31734;SDS011;18313;48.518;9.124;2023-01-28T10:32:20;17.80;;;10.65;;
31734;SDS011;18313;48.518;9.124;2023-01-28T10:34:50;19.13;;;10.70;;
31734;SDS011;18313;48.518;9.124;2023-01-28T10:37:19;18.38;;;9.45;;
31734;SDS011;18313;48.518;9.124;2023-01-28T10:39:47;15.32;;;9.57;;
31734;SDS011;18313;48.518;9.124;2023-01-28T10:42:16;17.92;;;10.93;;
31734;SDS011;18313;48.518;9.124;2023-01-28T10:47:47;18.10;;;10.48;;
31734;SDS011;18313;48.518;9.124;2023-01-28T10:50:28;16.00;;;9.98;;
31734;SDS011;18313;48.518;9.124;2023-01-28T10:52:58;15.93;;;9.55;;
31734;SDS011;18313;48.518;9.124;2023-01-28T10:55:29;17.70;;;10.05;;
31734;SDS011;18313;48.518;9.124;2023-01-28T10:58:33;15.05;;;8.85;;
31734;SDS011;18313;48.518;9.124;2023-01-28T11:01:04;17.85;;;10.13;;
31734;SDS011;18313;48.518;9.124;2023-01-28T11:03:32;15.52;;;9.07;;
31734;SDS011;18313;48.518;9.124;2023-01-28T11:06:03;16.48;;;9.30;;
31734;SDS011;18313;48.518;9.124;2023-01-28T11:08:41;13.65;;;8.38;;
31734;SDS011;18313;48.518;9.124;2023-01-28T11:11:12;16.95;;;9.52;;
31734;SDS011;18313;48.518;9.124;2023-01-28T11:13:49;15.57;;;8.93;;
31734;SDS011;18313;48.518;9.124;2023-01-28T11:16:19;18.63;;;9.40;;
31734;SDS011;18313;48.518;9.124;2023-01-28T11:18:51;14.70;;;8.93;;
31734;SDS011;18313;48.518;9.124;2023-01-28T11:21:21;15.55;;;9.32;;
31734;SDS011;18313;48.518;9.124;2023-01-28T11:23:56;16.83;;;9.20;;
31734;SDS011;18313;48.518;9.124;2023-01-28T11:29:00;14.18;;;8.88;;
31734;SDS011;18313;48.518;9.124;2023-01-28T11:31:28;15.70;;;8.70;;
31734;SDS011;18313;48.518;9.124;2023-01-28T11:34:03;14.95;;;8.55;;
31734;SDS011;18313;48.518;9.124;2023-01-28T11:36:32;15.15;;;8.65;;
31734;SDS011;18313;48.518;9.124;2023-01-28T11:39:02;19.35;;;9.13;;
31734;SDS011;18313;48.518;9.124;2023-01-28T11:41:42;15.38;;;8.82;;
31734;SDS011;18313;48.518;9.124;2023-01-28T11:44:13;18.52;;;10.57;;
31734;SDS011;18313;48.518;9.124;2023-01-28T11:47:08;18.48;;;10.25;;
31734;SDS011;18313;48.518;9.124;2023-01-28T11:58:14;15.40;;;8.95;;
31734;SDS011;18313;48.518;9.124;2023-01-28T12:00:59;17.38;;;10.00;;
31734;SDS011;18313;48.518;9.124;2023-01-28T12:06:49;19.33;;;11.13;;
31734;SDS011;18313;48.518;9.124;2023-01-28T12:09:41;21.02;;;10.65;;
31734;SDS011;18313;48.518;9.124;2023-01-28T12:12:37;21.70;;;12.40;;
31734;SDS011;18313;48.518;9.124;2023-01-28T12:21:02;23.52;;;11.82;;
31734;SDS011;18313;48.518;9.124;2023-01-28T12:26:34;21.17;;;12.07;;
31734;SDS011;18313;48.518;9.124;2023-01-28T12:29:26;20.13;;;11.23;;
31734;SDS011;18313;48.518;9.124;2023-01-28T12:34:48;23.65;;;12.05;;
31734;SDS011;18313;48.518;9.124;2023-01-28T12:37:39;21.37;;;10.97;;
31734;SDS011;18313;48.518;9.124;2023-01-28T12:48:08;21.73;;;12.13;;
31734;SDS011;18313;48.518;9.124;2023-01-28T12:50:42;16.20;;;8.68;;
31734;SDS011;18313;48.518;9.124;2023-01-28T12:55:48;20.17;;;11.52;;
31734;SDS011;18313;48.518;9.124;2023-01-28T12:58:23;21.80;;;13.15;;
31734;SDS011;18313;48.518;9.124;2023-01-28T13:01:12;21.73;;;12.10;;
31734;SDS011;18313;48.518;9.124;2023-01-28T13:03:47;20.20;;;10.77;;
31734;SDS011;18313;48.518;9.124;2023-01-28T13:06:22;20.13;;;11.05;;
31734;SDS011;18313;48.518;9.124;2023-01-28T13:08:50;20.70;;;11.80;;
31734;SDS011;18313;48.518;9.124;2023-01-28T13:11:29;22.77;;;10.75;;
31734;SDS011;18313;48.518;9.124;2023-01-28T13:14:01;22.83;;;12.73;;
31734;SDS011;18313;48.518;9.124;2023-01-28T13:16:30;23.02;;;12.02;;
31734;SDS011;18313;48.518;9.124;2023-01-28T13:21:46;22.15;;;11.43;;
31734;SDS011;18313;48.518;9.124;2023-01-28T13:24:18;24.05;;;12.02;;
31734;SDS011;18313;48.518;9.124;2023-01-28T13:26:49;16.33;;;8.70;;
31734;SDS011;18313;48.518;9.124;2023-01-28T13:32:25;22.08;;;11.15;;
31734;SDS011;18313;48.518;9.124;2023-01-28T13:35:00;22.45;;;12.23;;
31734;SDS011;18313;48.518;9.124;2023-01-28T13:37:33;23.38;;;11.70;;
31734;SDS011;18313;48.518;9.124;2023-01-28T13:42:40;25.00;;;12.95;;
31734;SDS011;18313;48.518;9.124;2023-01-28T13:47:46;26.17;;;12.27;;
31734;SDS011;18313;48.518;9.124;2023-01-28T13:50:20;27.10;;;13.25;;
31734;SDS011;18313;48.518;9.124;2023-01-28T13:52:57;21.75;;;11.68;;
31734;SDS011;18313;48.518;9.124;2023-01-28T13:55:36;23.92;;;11.60;;
31734;SDS011;18313;48.518;9.124;2023-01-28T13:58:18;21.60;;;11.50;;
31734;SDS011;18313;48.518;9.124;2023-01-28T14:18:34;21.20;;;11.20;;
31734;SDS011;18313;48.518;9.124;2023-01-28T14:21:10;22.27;;;12.43;;
31734;SDS011;18313;48.518;9.124;2023-01-28T14:23:49;23.13;;;12.32;;
31734;SDS011;18313;48.518;9.124;2023-01-28T14:26:34;24.05;;;12.43;;
31734;SDS011;18313;48.518;9.124;2023-01-28T14:32:03;20.80;;;12.13;;
31734;SDS011;18313;48.518;9.124;2023-01-28T14:34:37;21.80;;;9.88;;
31734;SDS011;18313;48.518;9.124;2023-01-28T14:37:05;22.15;;;12.25;;
31734;SDS011;18313;48.518;9.124;2023-01-28T14:39:41;22.65;;;11.27;;
31734;SDS011;18313;48.518;9.124;2023-01-28T14:42:11;21.83;;;11.75;;
31734;SDS011;18313;48.518;9.124;2023-01-28T14:44:44;21.63;;;11.10;;
31734;SDS011;18313;48.518;9.124;2023-01-28T14:47:22;26.40;;;12.57;;
31734;SDS011;18313;48.518;9.124;2023-01-28T14:50:24;19.05;;;10.15;;
31734;SDS011;18313;48.518;9.124;2023-01-28T14:56:31;22.50;;;12.90;;
31734;SDS011;18313;48.518;9.124;2023-01-28T14:59:28;23.77;;;12.05;;
31734;SDS011;18313;48.518;9.124;2023-01-28T15:02:09;23.05;;;11.35;;
31734;SDS011;18313;48.518;9.124;2023-01-28T15:04:50;20.52;;;11.60;;
31734;SDS011;18313;48.518;9.124;2023-01-28T15:07:20;24.73;;;12.18;;
31734;SDS011;18313;48.518;9.124;2023-01-28T15:10:05;21.08;;;10.30;;
31734;SDS011;18313;48.518;9.124;2023-01-28T15:12:36;23.35;;;12.05;;
31734;SDS011;18313;48.518;9.124;2023-01-28T15:15:15;24.20;;;11.57;;
31734;SDS011;18313;48.518;9.124;2023-01-28T15:18:11;16.42;;;9.55;;
31734;SDS011;18313;48.518;9.124;2023-01-28T15:20:44;23.67;;;10.45;;
31734;SDS011;18313;48.518;9.124;2023-01-28T15:23:14;18.50;;;9.05;;
31734;SDS011;18313;48.518;9.124;2023-01-28T15:25:43;15.15;;;8.23;;
31734;SDS011;18313;48.518;9.124;2023-01-28T15:28:20;13.13;;;6.95;;
31734;SDS011;18313;48.518;9.124;2023-01-28T15:30:57;13.15;;;7.43;;
31734;SDS011;18313;48.518;9.124;2023-01-28T15:33:25;12.52;;;7.18;;
31734;SDS011;18313;48.518;9.124;2023-01-28T15:35:53;13.05;;;7.25;;
31734;SDS011;18313;48.518;9.124;2023-01-28T15:38:22;15.38;;;8.23;;
31734;SDS011;18313;48.518;9.124;2023-01-28T15:40:56;13.68;;;7.97;;
31734;SDS011;18313;48.518;9.124;2023-01-28T15:43:29;11.25;;;6.95;;
31734;SDS011;18313;48.518;9.124;2023-01-28T15:45:58;13.75;;;7.65;;
31734;SDS011;18313;48.518;9.124;2023-01-28T15:48:28;14.82;;;7.45;;
31734;SDS011;18313;48.518;9.124;2023-01-28T15:51:03;14.18;;;7.63;;
31734;SDS011;18313;48.518;9.124;2023-01-28T15:53:34;12.85;;;7.15;;
31734;SDS011;18313;48.518;9.124;2023-01-28T15:56:09;14.57;;;8.52;;
31734;SDS011;18313;48.518;9.124;2023-01-28T15:58:40;14.55;;;7.85;;
31734;SDS011;18313;48.518;9.124;2023-01-28T16:03:36;14.82;;;7.97;;
31734;SDS011;18313;48.518;9.124;2023-01-28T16:06:15;14.38;;;7.75;;
31734;SDS011;18313;48.518;9.124;2023-01-28T16:08:57;15.25;;;8.23;;
31734;SDS011;18313;48.518;9.124;2023-01-28T16:11:29;14.35;;;8.30;;
31734;SDS011;18313;48.518;9.124;2023-01-28T16:13:59;14.65;;;8.43;;
31734;SDS011;18313;48.518;9.124;2023-01-28T16:16:34;15.30;;;8.35;;
31734;SDS011;18313;48.518;9.124;2023-01-28T16:19:05;15.63;;;8.30;;
31734;SDS011;18313;48.518;9.124;2023-01-28T16:21:34;18.40;;;8.52;;
31734;SDS011;18313;48.518;9.124;2023-01-28T16:27:00;14.23;;;8.23;;
31734;SDS011;18313;48.518;9.124;2023-01-28T16:29:30;16.27;;;9.25;;
31734;SDS011;18313;48.518;9.124;2023-01-28T16:31:58;15.57;;;9.48;;
31734;SDS011;18313;48.518;9.124;2023-01-28T16:34:26;15.98;;;8.15;;
31734;SDS011;18313;48.518;9.124;2023-01-28T16:36:57;12.68;;;7.88;;
31734;SDS011;18313;48.518;9.124;2023-01-28T16:39:25;13.27;;;7.93;;
31734;SDS011;18313;48.518;9.124;2023-01-28T16:41:53;16.65;;;8.07;;
31734;SDS011;18313;48.518;9.124;2023-01-28T16:44:22;15.98;;;8.50;;
31734;SDS011;18313;48.518;9.124;2023-01-28T16:46:49;16.55;;;8.35;;
31734;SDS011;18313;48.518;9.124;2023-01-28T16:49:17;15.98;;;7.60;;
31734;SDS011;18313;48.518;9.124;2023-01-28T16:51:44;14.95;;;9.30;;